createdAt,value
2022-09-16T00:02:20.105Z,14.04
2022-09-16T00:05:26.757Z,13.99
2022-09-16T00:08:33.135Z,13.96
2022-09-16T00:11:39.021Z,13.95
2022-09-16T00:14:44.991Z,13.93
2022-09-16T00:17:50.897Z,13.93
2022-09-16T00:20:56.777Z,13.88
2022-09-16T00:24:03.132Z,13.86
2022-09-16T00:27:09.081Z,13.84
2022-09-16T00:30:15.500Z,13.82
2022-09-16T00:33:22.204Z,13.84
2022-09-16T00:36:28.268Z,13.83
2022-09-16T00:39:32.528Z,13.83
2022-09-16T00:42:42.116Z,13.84
2022-09-16T00:45:51.572Z,13.83
2022-09-16T00:48:58.021Z,13.84
2022-09-16T00:52:07.499Z,13.84
2022-09-16T00:55:18.859Z,13.85
2022-09-16T00:58:29.314Z,13.88
2022-09-16T01:01:36.165Z,13.89
2022-09-16T01:04:51.405Z,13.88
2022-09-16T01:07:58.471Z,13.88
2022-09-16T01:11:04.592Z,13.88
2022-09-16T01:14:27.239Z,13.86
2022-09-16T01:17:47.300Z,13.85
2022-09-16T01:21:10.936Z,13.83
2022-09-16T01:24:51.312Z,13.84
2022-09-16T01:28:29.034Z,13.88
2022-09-16T01:31:43.348Z,13.88
2022-09-16T01:34:57.816Z,13.91
2022-09-16T01:38:11.588Z,13.94
2022-09-16T01:41:28.289Z,13.95
2022-09-16T01:44:46.293Z,13.96
2022-09-16T01:48:02.805Z,13.96
2022-09-16T01:51:15.725Z,13.95
2022-09-16T01:54:28.518Z,13.94
2022-09-16T01:57:39.706Z,13.93
2022-09-16T02:00:47.338Z,13.96
2022-09-16T02:04:00.805Z,13.96
2022-09-16T02:07:10.551Z,13.97
2022-09-16T02:10:24.666Z,13.98
2022-09-16T02:13:36.026Z,13.99
2022-09-16T02:16:48.214Z,13.99
2022-09-16T02:20:01.565Z,13.98
2022-09-16T02:23:11.944Z,13.98
2022-09-16T02:26:22.033Z,13.93
2022-09-16T02:29:33.570Z,13.90
2022-09-16T02:32:43.666Z,13.87
2022-09-16T02:35:53.806Z,13.85
2022-09-16T02:39:04.233Z,13.82
2022-09-16T02:42:10.740Z,13.80
2022-09-16T02:45:16.979Z,13.80
2022-09-16T02:48:30.994Z,13.77
2022-09-16T02:51:47.687Z,13.77
2022-09-16T02:54:59.729Z,13.76
2022-09-16T02:58:06.013Z,13.74
2022-09-16T03:01:15.034Z,13.70
2022-09-16T03:04:21.818Z,13.71
2022-09-16T03:07:28.045Z,13.71
2022-09-16T03:10:44.901Z,13.69
2022-09-16T03:14:01.046Z,13.69
2022-09-16T03:17:17.738Z,13.69
2022-09-16T03:20:31.924Z,13.69
2022-09-16T03:23:45.622Z,13.69
2022-09-16T03:27:00.922Z,13.68
2022-09-16T03:30:10.249Z,13.66
2022-09-16T03:33:25.646Z,13.65
2022-09-16T03:36:35.799Z,13.63
2022-09-16T03:39:42.665Z,13.60
2022-09-16T03:42:48.800Z,13.60
2022-09-16T03:45:53.028Z,13.59
2022-09-16T03:48:59.155Z,13.58
2022-09-16T03:52:04.893Z,13.55
2022-09-16T03:55:10.905Z,13.52
2022-09-16T03:58:16.787Z,13.51
2022-09-16T04:01:22.708Z,13.52
2022-09-16T04:04:28.625Z,13.52
2022-09-16T04:07:36.227Z,13.50
2022-09-16T04:10:42.108Z,13.50
2022-09-16T04:13:47.985Z,13.51
2022-09-16T04:16:53.858Z,13.53
2022-09-16T04:19:59.741Z,13.52
2022-09-16T04:23:06.018Z,13.52
2022-09-16T04:26:13.534Z,13.52
2022-09-16T04:29:19.469Z,13.51
2022-09-16T04:32:25.304Z,13.49
2022-09-16T04:35:31.181Z,13.47
2022-09-16T04:38:37.165Z,13.43
2022-09-16T04:41:43.038Z,13.38
2022-09-16T04:44:49.113Z,13.35
2022-09-16T04:48:00.556Z,13.33
2022-09-16T04:51:09.500Z,13.29
2022-09-16T04:54:15.575Z,13.26
2022-09-16T04:57:20.048Z,13.23
2022-09-16T05:00:27.091Z,13.20
2022-09-16T05:03:33.425Z,13.15
2022-09-16T05:06:40.877Z,13.14
2022-09-16T05:09:47.161Z,13.12
2022-09-16T05:12:55.827Z,13.15
2022-09-16T05:16:06.403Z,13.18
2022-09-16T05:19:14.337Z,13.21
2022-09-16T05:22:20.198Z,13.19
2022-09-16T05:25:26.295Z,13.20
2022-09-16T05:28:30.517Z,13.22
2022-09-16T05:31:38.441Z,13.24
2022-09-16T05:34:44.274Z,13.25
2022-09-16T05:37:52.511Z,13.24
2022-09-16T05:41:01.211Z,13.23
2022-09-16T05:44:08.087Z,13.25
2022-09-16T05:47:14.042Z,13.28
2022-09-16T05:50:20.805Z,13.33
2022-09-16T05:53:28.053Z,13.37
2022-09-16T05:56:33.987Z,13.43
2022-09-16T05:59:39.845Z,13.47
2022-09-16T06:02:46.187Z,13.53
2022-09-16T06:05:52.110Z,13.60
2022-09-16T06:09:00.213Z,13.66
2022-09-16T06:12:06.587Z,13.69
2022-09-16T06:15:14.244Z,13.71
2022-09-16T06:18:20.330Z,13.76
2022-09-16T06:21:25.101Z,13.82
2022-09-16T06:24:30.947Z,13.87
2022-09-16T06:27:36.846Z,13.91
2022-09-16T06:30:43.132Z,13.95
2022-09-16T06:33:50.471Z,14.00
2022-09-16T06:36:56.316Z,14.04
2022-09-16T06:40:02.240Z,14.07
2022-09-16T06:43:08.154Z,14.12
2022-09-16T06:46:16.804Z,14.16
2022-09-16T06:49:22.781Z,14.18
2022-09-16T06:52:29.373Z,14.21
2022-09-16T06:55:36.237Z,14.25
2022-09-16T06:58:44.146Z,14.32
2022-09-16T07:01:49.994Z,14.40
2022-09-16T07:04:55.855Z,14.48
2022-09-16T07:08:02.417Z,14.56
2022-09-16T07:11:10.227Z,14.69
2022-09-16T07:14:16.387Z,14.86
2022-09-16T07:17:26.146Z,15.10
2022-09-16T07:20:32.018Z,15.35
2022-09-16T07:23:39.502Z,15.52
2022-09-16T07:26:46.378Z,15.63
2022-09-16T07:29:53.961Z,15.68
2022-09-16T07:33:00.151Z,15.75
2022-09-16T07:36:08.011Z,15.88
2022-09-16T07:39:15.585Z,15.95
2022-09-16T07:42:21.690Z,16.01
2022-09-16T07:45:25.930Z,16.04
2022-09-16T07:48:35.338Z,16.12
2022-09-16T07:51:41.523Z,16.13
2022-09-16T07:54:45.729Z,16.14
2022-09-16T07:57:51.613Z,16.16
2022-09-16T08:01:01.898Z,16.24
2022-09-16T08:04:10.526Z,16.38
2022-09-16T08:07:16.698Z,16.49
2022-09-16T08:10:22.887Z,16.57
2022-09-16T08:13:30.351Z,16.64
2022-09-16T08:16:36.592Z,16.72
2022-09-16T08:19:42.561Z,16.83
2022-09-16T08:22:48.422Z,16.89
2022-09-16T08:26:00.813Z,16.95
2022-09-16T08:29:09.750Z,16.94
2022-09-16T08:32:16.325Z,17.10
2022-09-16T08:35:22.378Z,17.17
2022-09-16T08:38:26.679Z,17.27
2022-09-16T08:41:54.044Z,17.29
2022-09-16T08:45:20.759Z,17.28
2022-09-16T08:48:37.389Z,17.28
2022-09-16T08:51:43.526Z,17.25
2022-09-16T08:54:52.340Z,17.18
2022-09-16T08:58:02.644Z,17.19
2022-09-16T09:01:20.380Z,17.16
2022-09-16T09:04:26.865Z,17.09
2022-09-16T09:07:50.110Z,16.98
2022-09-16T09:11:02.703Z,16.89
2022-09-16T09:14:24.963Z,16.84
2022-09-16T09:17:50.180Z,16.79
2022-09-16T09:21:08.701Z,16.71
2022-09-16T09:24:29.629Z,16.65
2022-09-16T09:27:47.178Z,16.63
2022-09-16T09:31:06.237Z,16.66
2022-09-16T09:34:25.288Z,16.67
2022-09-16T09:37:49.112Z,16.67
2022-09-16T09:40:58.962Z,16.68
2022-09-16T09:44:21.915Z,16.76
2022-09-16T09:47:32.820Z,16.81
2022-09-16T09:50:43.801Z,16.90
2022-09-16T09:53:55.215Z,17.01
2022-09-16T09:57:06.585Z,17.09
2022-09-16T10:00:19.237Z,17.18
2022-09-16T10:03:25.793Z,17.20
2022-09-16T10:06:35.789Z,17.25
2022-09-16T10:09:53.192Z,17.32
2022-09-16T10:13:10.476Z,17.44
2022-09-16T10:16:20.845Z,17.60
2022-09-16T10:19:29.406Z,17.77
2022-09-16T10:22:36.645Z,17.94
2022-09-16T10:25:43.423Z,18.10
2022-09-16T10:28:59.225Z,18.24
2022-09-16T10:32:13.463Z,18.43
2022-09-16T10:35:24.745Z,18.60
2022-09-16T10:38:40.797Z,18.68
2022-09-16T10:41:47.626Z,18.77
2022-09-16T10:44:55.362Z,18.86
2022-09-16T10:48:06.590Z,18.85
2022-09-16T10:51:25.339Z,18.90
2022-09-16T10:54:31.809Z,18.90
2022-09-16T10:57:42.073Z,18.80
2022-09-16T11:00:57.782Z,18.77
2022-09-16T11:04:10.009Z,18.74
2022-09-16T11:07:29.741Z,18.70
2022-09-16T11:10:44.381Z,18.66
2022-09-16T11:13:59.660Z,18.68
2022-09-16T11:17:26.368Z,18.68
2022-09-16T11:20:56.638Z,18.68
2022-09-16T11:24:25.258Z,18.67
2022-09-16T11:27:45.042Z,18.81
2022-09-16T11:30:57.101Z,18.90
2022-09-16T11:34:12.145Z,18.90
2022-09-16T11:37:23.389Z,19.00
2022-09-16T11:40:40.178Z,19.02
2022-09-16T11:44:18.586Z,19.07
2022-09-16T11:47:43.545Z,19.04
2022-09-16T11:50:56.990Z,19.08
2022-09-16T11:54:25.084Z,19.22
2022-09-16T11:57:36.489Z,19.41
2022-09-16T12:00:44.119Z,19.55
2022-09-16T12:03:55.255Z,19.68
2022-09-16T12:07:05.879Z,19.76
2022-09-16T12:10:20.531Z,19.89
2022-09-16T12:13:31.205Z,19.90
2022-09-16T12:16:44.122Z,19.86
2022-09-16T12:19:55.525Z,19.79
2022-09-16T12:23:07.925Z,19.69
2022-09-16T12:26:19.185Z,19.66
2022-09-16T12:29:34.944Z,19.68
2022-09-16T12:32:52.154Z,19.63
2022-09-16T12:36:03.718Z,19.51
2022-09-16T12:39:11.868Z,19.41
2022-09-16T12:42:44.517Z,19.28
2022-09-16T12:46:08.374Z,19.14
2022-09-16T12:49:53.991Z,19.00
2022-09-16T12:53:35.939Z,18.83
2022-09-16T12:57:10.565Z,18.77
2022-09-16T13:00:21.374Z,18.79
2022-09-16T13:03:31.505Z,18.80
2022-09-16T13:06:42.001Z,18.80
2022-09-16T13:09:49.402Z,18.77
2022-09-16T13:12:57.504Z,18.71
2022-09-16T13:16:06.315Z,18.59
2022-09-16T13:19:41.522Z,18.56
2022-09-16T13:22:54.222Z,18.51
2022-09-16T13:26:03.288Z,18.43
2022-09-16T13:29:44.328Z,18.35
2022-09-16T13:33:26.524Z,18.10
2022-09-16T13:36:36.008Z,17.88
2022-09-16T13:39:42.215Z,17.68
2022-09-16T13:42:48.362Z,17.39
2022-09-16T13:46:05.226Z,17.25
2022-09-16T13:49:24.739Z,17.03
2022-09-16T13:52:33.131Z,16.80
2022-09-16T13:55:41.575Z,16.78
2022-09-16T13:59:00.974Z,16.78
2022-09-16T14:02:18.152Z,16.68
2022-09-16T14:05:45.009Z,16.60
2022-09-16T14:08:59.905Z,16.52
2022-09-16T14:12:15.709Z,16.44
2022-09-16T14:15:20.289Z,16.40
2022-09-16T14:18:30.960Z,16.36
2022-09-16T14:21:38.553Z,16.35
2022-09-16T14:24:46.226Z,16.40
2022-09-16T14:31:01.179Z,16.51
2022-09-16T14:34:11.282Z,16.59
2022-09-16T14:37:20.426Z,16.66
2022-09-16T14:40:28.576Z,16.72
2022-09-16T14:43:34.903Z,16.76
2022-09-16T14:46:45.720Z,16.77
2022-09-16T14:49:54.298Z,16.77
2022-09-16T14:53:01.759Z,16.81
2022-09-16T14:56:19.583Z,16.87
2022-09-16T14:59:29.294Z,16.96
2022-09-16T15:02:38.628Z,17.03
2022-09-16T15:05:48.254Z,17.10
2022-09-16T15:08:59.408Z,17.10
2022-09-16T15:12:07.067Z,17.06
2022-09-16T15:15:22.121Z,17.00
2022-09-16T15:18:32.344Z,16.96
2022-09-16T15:21:44.775Z,16.97
2022-09-16T15:24:54.142Z,16.97
2022-09-16T15:28:09.409Z,16.96
2022-09-16T15:31:27.522Z,16.93
2022-09-16T15:34:33.899Z,16.86
2022-09-16T15:37:40.191Z,16.80
2022-09-16T15:40:46.797Z,16.74
2022-09-16T15:43:53.233Z,16.68
2022-09-16T15:47:00.006Z,16.63
2022-09-16T15:50:10.419Z,16.55
2022-09-16T15:53:21.854Z,16.50
2022-09-16T15:56:34.110Z,16.46
2022-09-16T15:59:45.427Z,16.43
2022-09-16T16:02:55.961Z,16.39
2022-09-16T16:06:05.226Z,16.33
2022-09-16T16:09:33.078Z,16.29
2022-09-16T16:12:38.942Z,16.25
2022-09-16T16:15:44.947Z,16.19
2022-09-16T16:18:49.225Z,16.12
2022-09-16T16:21:56.670Z,16.04
2022-09-16T16:25:02.683Z,15.95
2022-09-16T16:28:06.869Z,15.87
2022-09-16T16:31:16.828Z,15.80
2022-09-16T16:34:22.850Z,15.72
2022-09-16T16:40:55.318Z,15.64
2022-09-16T16:44:01.281Z,15.60
2022-09-16T16:47:05.952Z,15.57
2022-09-16T16:50:12.561Z,15.52
2022-09-16T16:53:18.419Z,15.48
2022-09-16T16:56:24.277Z,15.44
2022-09-16T16:59:30.854Z,15.40
2022-09-16T17:02:36.785Z,15.37
2022-09-16T17:05:42.721Z,15.34
2022-09-16T17:08:49.174Z,15.32
2022-09-16T17:11:56.889Z,15.30
2022-09-16T17:15:03.472Z,15.25
2022-09-16T17:18:09.315Z,15.23
2022-09-16T17:21:18.067Z,15.19
2022-09-16T17:24:24.434Z,15.14
2022-09-16T17:27:30.321Z,15.08
2022-09-16T17:30:36.379Z,15.01
2022-09-16T17:33:40.673Z,14.97
2022-09-16T17:36:48.663Z,14.93
2022-09-16T17:39:55.024Z,14.86
2022-09-16T17:43:01.102Z,14.79
2022-09-16T17:46:09.737Z,14.71
2022-09-16T17:49:20.298Z,14.67
2022-09-16T17:52:26.214Z,14.65
2022-09-16T17:55:32.195Z,14.62
2022-09-16T17:58:54.196Z,14.59
2022-09-16T18:02:00.703Z,14.55
2022-09-16T18:05:09.226Z,14.52
2022-09-16T18:08:15.639Z,14.51
2022-09-16T18:11:24.598Z,14.50
2022-09-16T18:14:30.774Z,14.49
2022-09-16T18:17:36.666Z,14.49
2022-09-16T18:20:42.754Z,14.48
2022-09-16T18:23:49.776Z,14.45
2022-09-16T18:26:55.727Z,14.34
2022-09-16T18:30:02.376Z,14.26
2022-09-16T18:33:09.419Z,14.25
2022-09-16T18:36:18.478Z,14.24
2022-09-16T18:39:24.373Z,14.25
2022-09-16T18:42:30.430Z,14.25
2022-09-16T18:45:34.707Z,14.24
2022-09-16T18:48:41.229Z,14.20
2022-09-16T18:51:51.629Z,14.14
2022-09-16T18:54:58.124Z,14.11
2022-09-16T18:58:02.377Z,14.06
2022-09-16T19:01:20.858Z,14.01
2022-09-16T19:04:29.901Z,13.98
2022-09-16T19:07:35.807Z,13.97
2022-09-16T19:10:41.914Z,13.96
2022-09-16T19:13:46.264Z,13.93
2022-09-16T19:16:52.240Z,13.87
2022-09-16T19:19:58.126Z,13.81
2022-09-16T19:23:03.993Z,13.80
2022-09-16T19:26:10.093Z,13.79
2022-09-16T19:29:15.053Z,13.78
2022-09-16T19:32:21.052Z,13.76
2022-09-16T19:35:31.337Z,13.72
2022-09-16T19:38:38.671Z,13.67
2022-09-16T19:41:45.645Z,13.62
2022-09-16T19:44:52.593Z,13.57
2022-09-16T19:48:00.314Z,13.51
2022-09-16T19:51:09.395Z,13.46
2022-09-16T19:54:17.011Z,13.40
2022-09-16T19:57:23.339Z,13.34
2022-09-16T20:00:52.553Z,13.27
2022-09-16T20:03:56.533Z,13.19
2022-09-16T20:07:02.499Z,13.10
2022-09-16T20:10:09.856Z,13.06
2022-09-16T20:13:16.005Z,13.02
2022-09-16T20:16:21.054Z,12.98
2022-09-16T20:19:27.491Z,12.96
2022-09-16T20:22:33.356Z,12.92
2022-09-16T20:25:39.245Z,12.89
2022-09-16T20:28:46.546Z,12.87
2022-09-16T20:31:54.103Z,12.85
2022-09-16T20:35:00.014Z,12.82
2022-09-16T20:38:05.906Z,12.80
2022-09-16T20:41:13.686Z,12.80
2022-09-16T20:44:19.961Z,12.79
2022-09-16T20:47:33.391Z,12.79
2022-09-16T20:50:41.810Z,12.79
2022-09-16T20:53:53.628Z,12.78
2022-09-16T20:56:59.816Z,12.77
2022-09-16T21:00:05.361Z,12.77
2022-09-16T21:03:15.142Z,12.76
2022-09-16T21:06:21.675Z,12.74
2022-09-16T21:09:27.550Z,12.73
2022-09-16T21:12:33.688Z,12.72
2022-09-16T21:15:38.849Z,12.73
2022-09-16T21:18:45.675Z,12.73
2022-09-16T21:21:51.662Z,12.73
2022-09-16T21:24:58.445Z,12.74
2022-09-16T21:28:04.573Z,12.75
2022-09-16T21:31:10.962Z,12.75
2022-09-16T21:34:18.457Z,12.73
2022-09-16T21:37:24.603Z,12.73
2022-09-16T21:40:29.122Z,12.72
2022-09-16T21:43:39.941Z,12.71
2022-09-16T21:46:47.573Z,12.69
2022-09-16T21:49:53.522Z,12.66
2022-09-16T21:52:59.392Z,12.63
2022-09-16T21:56:07.653Z,12.62
2022-09-16T21:59:14.222Z,12.60
2022-09-16T22:02:20.228Z,12.56
2022-09-16T22:05:26.490Z,12.52
2022-09-16T22:08:33.025Z,12.49
2022-09-16T22:11:41.835Z,12.45
2022-09-16T22:14:47.907Z,12.42
2022-09-16T22:17:54.356Z,12.38
2022-09-16T22:21:05.332Z,12.32
2022-09-16T22:24:11.943Z,12.25
2022-09-16T22:27:17.826Z,12.19
2022-09-16T22:30:23.689Z,12.14
2022-09-16T22:33:29.584Z,12.09
2022-09-16T22:36:37.702Z,12.05
2022-09-16T22:39:43.658Z,12.02
2022-09-16T22:42:49.507Z,11.99
2022-09-16T22:45:55.886Z,11.96
2022-09-16T22:49:02.426Z,11.91
2022-09-16T22:52:08.537Z,11.85
2022-09-16T22:55:13.012Z,11.78
2022-09-16T22:58:19.126Z,11.72
2022-09-16T23:01:24.971Z,11.65
2022-09-16T23:04:29.506Z,11.58
2022-09-16T23:07:35.423Z,11.51
2022-09-16T23:10:41.299Z,11.44
2022-09-16T23:13:50.528Z,11.39
2022-09-16T23:16:56.386Z,11.35
2022-09-16T23:20:02.307Z,11.30
2022-09-16T23:23:08.498Z,11.24
2022-09-16T23:26:14.283Z,11.19
2022-09-16T23:29:19.635Z,11.16
2022-09-16T23:32:25.745Z,11.11
2022-09-16T23:35:31.727Z,11.08
2022-09-16T23:38:39.398Z,11.05
2022-09-16T23:41:45.734Z,11.02
2022-09-16T23:44:51.604Z,10.99
2022-09-16T23:47:57.458Z,10.95
2022-09-16T23:51:03.707Z,10.91
2022-09-16T23:54:08.156Z,10.88
2022-09-16T23:57:14.033Z,10.84
